createdAt,value
2019-01-18T00:01:00.406Z,10.80
2019-01-18T00:07:06.479Z,11.00
2019-01-18T00:13:13.998Z,11.70
2019-01-18T00:19:19.983Z,11.33
2019-01-18T00:25:26.161Z,11.47
2019-01-18T00:31:32.469Z,11.30
2019-01-18T00:37:38.659Z,10.70
2019-01-18T00:43:44.919Z,11.43
2019-01-18T00:49:50.723Z,10.80
2019-01-18T00:55:56.456Z,10.77
2019-01-18T01:02:02.473Z,10.07
2019-01-18T01:08:08.497Z,9.93
2019-01-18T01:14:14.392Z,10.33
2019-01-18T01:20:22.624Z,10.40
2019-01-18T01:26:28.601Z,10.13
2019-01-18T01:32:35.775Z,9.70
2019-01-18T01:38:41.517Z,9.57
2019-01-18T01:44:47.257Z,9.63
2019-01-18T01:50:52.969Z,9.50
2019-01-18T01:56:58.853Z,9.97
2019-01-18T02:03:08.224Z,8.80
2019-01-18T02:09:14.004Z,10.20
2019-01-18T02:15:23.196Z,11.13
2019-01-18T02:21:29.137Z,11.00
2019-01-18T02:27:35.122Z,11.37
2019-01-18T02:33:41.293Z,11.27
2019-01-18T02:39:47.270Z,12.30
2019-01-18T02:45:55.853Z,10.93
2019-01-18T02:52:01.713Z,10.10
2019-01-18T02:58:08.985Z,10.50
2019-01-18T03:04:16.752Z,11.30
2019-01-18T03:10:31.271Z,10.83
2019-01-18T03:16:37.760Z,11.33
2019-01-18T03:22:43.988Z,12.20
2019-01-18T03:28:49.749Z,11.63
2019-01-18T03:34:55.695Z,11.90
2019-01-18T03:41:01.742Z,11.00
2019-01-18T03:47:08.040Z,11.70
2019-01-18T03:53:13.742Z,10.53
2019-01-18T03:59:19.789Z,10.07
2019-01-18T04:05:26.286Z,11.00
2019-01-18T04:11:32.441Z,9.53
2019-01-18T04:17:39.528Z,9.77
2019-01-18T04:23:47.871Z,9.70
2019-01-18T04:29:53.907Z,11.17
2019-01-18T04:35:59.803Z,11.00
2019-01-18T04:42:05.929Z,11.80
2019-01-18T04:48:12.460Z,11.90
2019-01-18T04:54:18.266Z,11.37
2019-01-18T05:00:26.928Z,13.77
2019-01-18T05:06:34.274Z,14.17
2019-01-18T05:12:40.500Z,14.20
2019-01-18T05:18:46.449Z,12.80
2019-01-18T05:24:55.063Z,14.53
2019-01-18T05:31:01.544Z,14.67
2019-01-18T05:37:07.275Z,14.63
2019-01-18T05:43:13.106Z,13.97
2019-01-18T05:49:19.348Z,14.27
2019-01-18T05:55:28.406Z,13.87
2019-01-18T06:01:34.340Z,15.63
2019-01-18T06:07:40.269Z,19.07
2019-01-18T06:13:46.105Z,26.10
2019-01-18T06:19:53.373Z,24.67
2019-01-18T06:25:59.141Z,25.83
2019-01-18T06:32:05.271Z,19.97
2019-01-18T06:38:11.193Z,22.43
2019-01-18T06:44:16.922Z,21.40
2019-01-18T06:50:23.460Z,23.17
2019-01-18T06:56:33.659Z,25.57
2019-01-18T07:02:41.326Z,35.07
2019-01-18T07:08:47.399Z,28.93
2019-01-18T07:14:53.500Z,34.60
2019-01-18T07:21:02.560Z,44.07
2019-01-18T07:27:08.643Z,41.40
2019-01-18T07:33:18.697Z,44.67
2019-01-18T07:39:24.428Z,44.93
2019-01-18T07:45:33.103Z,46.63
2019-01-18T07:51:39.016Z,42.70
2019-01-18T07:57:44.988Z,40.17
2019-01-18T08:03:50.758Z,56.13
2019-01-18T08:09:56.563Z,42.63
2019-01-18T08:16:02.389Z,44.50
2019-01-18T08:22:08.381Z,38.97
2019-01-18T08:28:14.552Z,46.13
2019-01-18T08:34:20.350Z,36.73
2019-01-18T08:40:36.047Z,35.13
2019-01-18T08:46:42.302Z,41.67
2019-01-18T08:52:48.424Z,42.67
2019-01-18T08:58:54.504Z,38.10
2019-01-18T09:05:06.049Z,35.77
2019-01-18T09:11:11.861Z,38.97
2019-01-18T09:17:17.913Z,35.67
2019-01-18T09:23:23.694Z,32.90
2019-01-18T09:29:29.633Z,30.37
2019-01-18T09:35:36.337Z,30.77
2019-01-18T09:41:42.495Z,29.20
2019-01-18T09:47:50.018Z,30.63
2019-01-18T09:53:58.699Z,31.70
2019-01-18T10:00:06.510Z,34.07
2019-01-18T10:06:12.427Z,31.87
2019-01-18T10:12:18.277Z,33.83
2019-01-18T10:18:26.330Z,33.83
2019-01-18T10:24:32.760Z,34.73
2019-01-18T10:30:40.750Z,35.07
2019-01-18T10:36:47.012Z,36.10
2019-01-18T10:42:56.516Z,36.77
2019-01-18T10:49:02.767Z,36.47
2019-01-18T10:55:09.644Z,35.57
2019-01-18T11:01:17.283Z,36.67
2019-01-18T11:07:25.009Z,36.67
2019-01-18T11:13:33.808Z,36.70
2019-01-18T11:19:39.578Z,36.10
2019-01-18T11:25:45.718Z,36.67
2019-01-18T11:31:51.761Z,34.33
2019-01-18T11:37:59.920Z,39.60
2019-01-18T11:44:17.193Z,33.20
2019-01-18T11:50:27.785Z,34.40
2019-01-18T11:56:33.743Z,34.37
2019-01-18T12:02:39.970Z,35.27
2019-01-18T12:08:48.368Z,35.63
2019-01-18T12:14:54.282Z,34.63
2019-01-18T12:21:00.264Z,40.13
2019-01-18T12:27:06.489Z,45.67
2019-01-18T12:33:12.439Z,34.93
2019-01-18T12:39:40.251Z,33.00
2019-01-18T12:45:47.030Z,32.20
2019-01-18T12:51:53.023Z,33.77
2019-01-18T12:57:58.956Z,34.03
2019-01-18T13:04:08.254Z,34.13
2019-01-18T13:10:12.652Z,33.70
2019-01-18T13:16:33.072Z,31.43
2019-01-18T13:22:38.930Z,29.67
2019-01-18T13:28:44.807Z,29.37
2019-01-18T13:34:50.868Z,28.33
2019-01-18T13:40:56.854Z,25.63
2019-01-18T13:47:02.936Z,24.93
2019-01-18T13:53:08.852Z,23.00
2019-01-18T13:59:14.819Z,25.70
2019-01-18T14:05:26.135Z,25.77
2019-01-18T14:11:34.753Z,24.30
2019-01-18T14:17:40.656Z,25.03
2019-01-18T14:23:46.449Z,25.37
2019-01-18T14:29:52.613Z,24.53
2019-01-18T14:35:58.549Z,25.50
2019-01-18T14:42:06.094Z,25.83
2019-01-18T14:48:14.950Z,25.90
2019-01-18T14:54:22.997Z,26.00
2019-01-18T15:00:33.534Z,26.70
2019-01-18T15:06:39.520Z,27.50
2019-01-18T15:12:49.106Z,26.90
2019-01-18T15:18:58.006Z,27.70
2019-01-18T15:25:03.844Z,27.47
2019-01-18T15:31:09.592Z,27.47
2019-01-18T15:37:15.492Z,29.60
2019-01-18T15:43:22.992Z,28.53
2019-01-18T15:49:29.840Z,27.17
2019-01-18T15:55:37.153Z,28.87
2019-01-18T16:01:43.054Z,31.13
2019-01-18T16:07:48.800Z,31.00
2019-01-18T16:13:54.613Z,30.23
2019-01-18T16:20:02.308Z,32.30
2019-01-18T16:26:08.249Z,32.63
2019-01-18T16:32:14.426Z,32.20
2019-01-18T16:38:20.198Z,31.33
2019-01-18T16:44:26.027Z,30.00
2019-01-18T16:50:31.798Z,27.23
2019-01-18T16:56:37.609Z,27.40
2019-01-18T17:02:45.312Z,25.20
2019-01-18T17:08:52.611Z,32.77
2019-01-18T17:14:59.057Z,25.40
2019-01-18T17:21:06.098Z,25.97
2019-01-18T17:27:11.940Z,26.57
2019-01-18T17:33:17.970Z,28.10
2019-01-18T17:40:23.320Z,27.33
2019-01-18T17:47:31.602Z,26.30
2019-01-18T17:54:07.970Z,25.97
2019-01-18T18:01:30.919Z,26.27
2019-01-18T18:08:27.519Z,26.03
2019-01-18T18:15:15.749Z,24.80
2019-01-18T18:22:26.056Z,25.10
2019-01-18T18:29:30.922Z,23.67
2019-01-18T18:36:49.355Z,23.03
2019-01-18T18:43:42.428Z,23.00
2019-01-18T18:50:59.011Z,22.63
2019-01-18T18:58:09.084Z,21.37
2019-01-18T19:05:10.492Z,21.70
2019-01-18T19:11:48.425Z,21.23
2019-01-18T19:19:11.072Z,21.83
2019-01-18T19:25:58.211Z,20.77
2019-01-18T19:32:49.550Z,20.50
2019-01-18T19:39:39.399Z,20.37
2019-01-18T19:46:44.017Z,21.50
2019-01-18T19:53:20.870Z,20.07
2019-01-18T20:00:37.167Z,20.97
2019-01-18T20:07:41.550Z,20.67
2019-01-18T20:14:28.299Z,19.80
2019-01-18T20:21:31.500Z,21.07
2019-01-18T20:28:36.917Z,20.57
2019-01-18T20:35:47.458Z,20.57
2019-01-18T20:42:59.839Z,19.80
2019-01-18T20:49:49.238Z,19.83
2019-01-18T20:56:47.707Z,19.97
2019-01-18T21:03:32.419Z,19.33
2019-01-18T21:10:39.118Z,19.53
2019-01-18T21:17:45.266Z,19.50
2019-01-18T21:24:34.616Z,20.73
2019-01-18T21:31:23.139Z,19.33
2019-01-18T21:38:43.074Z,19.90
2019-01-18T21:45:47.577Z,19.53
2019-01-18T21:53:22.842Z,20.00
2019-01-18T22:00:34.976Z,19.57
2019-01-18T22:07:24.124Z,19.10
2019-01-18T22:14:30.720Z,19.07
2019-01-18T22:21:43.779Z,19.47
2019-01-18T22:28:43.577Z,19.33
2019-01-18T22:35:38.535Z,21.10
2019-01-18T22:42:44.312Z,20.87
2019-01-18T22:49:34.681Z,19.10
2019-01-18T22:56:10.070Z,19.23
2019-01-18T23:02:43.675Z,18.43
2019-01-18T23:09:29.859Z,19.60
2019-01-18T23:16:39.255Z,18.73
2019-01-18T23:23:20.946Z,19.23
2019-01-18T23:29:59.283Z,19.47
2019-01-18T23:36:54.905Z,19.40
2019-01-18T23:43:39.920Z,19.53
2019-01-18T23:50:55.749Z,19.27
2019-01-18T23:57:57.716Z,20.03
